sensor_id;sensor_type;location;lat;lon;timestamp;pressure;altitude;pressure_sealevel;temperature
69857;BMP280;57147;53.582;10.112;2023-05-07T00:04:28;101788.72;;;8.74
69857;BMP280;57147;53.582;10.112;2023-05-07T00:09:32;101794.72;;;8.64
69857;BMP280;57147;53.582;10.112;2023-05-07T00:14:33;101790.22;;;8.65
69857;BMP280;57147;53.582;10.112;2023-05-07T00:19:37;101785.47;;;8.67
69857;BMP280;57147;53.582;10.112;2023-05-07T00:24:40;101791.88;;;8.71
69857;BMP280;57147;53.582;10.112;2023-05-07T00:29:41;101785.97;;;8.64
69857;BMP280;57147;53.582;10.112;2023-05-07T00:34:42;101786.31;;;8.72
69857;BMP280;57147;53.582;10.112;2023-05-07T00:39:46;101786.38;;;8.78
69857;BMP280;57147;53.582;10.112;2023-05-07T00:44:47;101779.28;;;8.83
69857;BMP280;57147;53.582;10.112;2023-05-07T00:49:48;101781.91;;;8.83
69857;BMP280;57147;53.582;10.112;2023-05-07T00:54:52;101777.94;;;8.81
69857;BMP280;57147;53.582;10.112;2023-05-07T00:59:53;101784.53;;;8.78
69857;BMP280;57147;53.582;10.112;2023-05-07T01:04:54;101764.75;;;8.59
69857;BMP280;57147;53.582;10.112;2023-05-07T01:09:58;101783.06;;;8.65
69857;BMP280;57147;53.582;10.112;2023-05-07T01:14:59;101774.31;;;8.38
69857;BMP280;57147;53.582;10.112;2023-05-07T01:20:00;101782.94;;;8.50
69857;BMP280;57147;53.582;10.112;2023-05-07T01:25:04;101742.06;;;8.41
69857;BMP280;57147;53.582;10.112;2023-05-07T01:30:06;101787.03;;;8.63
69857;BMP280;57147;53.582;10.112;2023-05-07T01:35:10;101739.47;;;8.46
69857;BMP280;57147;53.582;10.112;2023-05-07T01:40:14;101773.84;;;8.68
69857;BMP280;57147;53.582;10.112;2023-05-07T01:45:14;101772.03;;;8.73
69857;BMP280;57147;53.582;10.112;2023-05-07T01:50:17;101773.53;;;8.64
69857;BMP280;57147;53.582;10.112;2023-05-07T01:55:21;101780.50;;;8.70
69857;BMP280;57147;53.582;10.112;2023-05-07T02:00:22;101780.75;;;8.69
69857;BMP280;57147;53.582;10.112;2023-05-07T02:05:23;101778.09;;;8.69
69857;BMP280;57147;53.582;10.112;2023-05-07T02:10:27;101729.22;;;8.23
69857;BMP280;57147;53.582;10.112;2023-05-07T02:15:27;101749.66;;;8.32
69857;BMP280;57147;53.582;10.112;2023-05-07T02:20:28;101748.38;;;8.35
69857;BMP280;57147;53.582;10.112;2023-05-07T02:25:32;101779.09;;;8.63
69857;BMP280;57147;53.582;10.112;2023-05-07T02:30:32;101777.78;;;8.65
69857;BMP280;57147;53.582;10.112;2023-05-07T02:35:33;101781.03;;;8.72
69857;BMP280;57147;53.582;10.112;2023-05-07T02:40:36;101783.84;;;8.61
69857;BMP280;57147;53.582;10.112;2023-05-07T02:45:37;101784.91;;;8.38
69857;BMP280;57147;53.582;10.112;2023-05-07T02:50:37;101790.19;;;8.38
69857;BMP280;57147;53.582;10.112;2023-05-07T02:55:41;101795.81;;;8.42
69857;BMP280;57147;53.582;10.112;2023-05-07T03:00:41;101797.53;;;8.53
69857;BMP280;57147;53.582;10.112;2023-05-07T03:05:42;101775.69;;;8.41
69857;BMP280;57147;53.582;10.112;2023-05-07T03:10:46;101791.19;;;8.54
69857;BMP280;57147;53.582;10.112;2023-05-07T03:15:47;101819.19;;;8.50
69857;BMP280;57147;53.582;10.112;2023-05-07T03:20:48;101806.56;;;8.57
69857;BMP280;57147;53.582;10.112;2023-05-07T03:25:51;101818.59;;;8.69
69857;BMP280;57147;53.582;10.112;2023-05-07T03:30:52;101810.75;;;8.53
69857;BMP280;57147;53.582;10.112;2023-05-07T03:35:53;101822.31;;;8.68
69857;BMP280;57147;53.582;10.112;2023-05-07T03:40:56;101833.91;;;8.62
69857;BMP280;57147;53.582;10.112;2023-05-07T03:45:56;101802.31;;;8.56
69857;BMP280;57147;53.582;10.112;2023-05-07T03:50:57;101822.00;;;8.65
69857;BMP280;57147;53.582;10.112;2023-05-07T03:56:01;101848.28;;;8.71
69857;BMP280;57147;53.582;10.112;2023-05-07T04:01:01;101818.25;;;8.39
69857;BMP280;57147;53.582;10.112;2023-05-07T04:06:02;101817.66;;;8.54
69857;BMP280;57147;53.582;10.112;2023-05-07T04:11:05;101845.78;;;8.60
69857;BMP280;57147;53.582;10.112;2023-05-07T04:16:06;101851.50;;;8.52
69857;BMP280;57147;53.582;10.112;2023-05-07T04:21:13;101840.25;;;8.39
69857;BMP280;57147;53.582;10.112;2023-05-07T04:26:17;101868.03;;;8.64
69857;BMP280;57147;53.582;10.112;2023-05-07T04:31:17;101866.50;;;8.68
69857;BMP280;57147;53.582;10.112;2023-05-07T04:36:18;101878.31;;;8.82
69857;BMP280;57147;53.582;10.112;2023-05-07T04:41:21;101861.72;;;8.65
69857;BMP280;57147;53.582;10.112;2023-05-07T04:46:22;101846.38;;;8.67
69857;BMP280;57147;53.582;10.112;2023-05-07T04:51:22;101864.44;;;8.70
69857;BMP280;57147;53.582;10.112;2023-05-07T04:56:27;101849.06;;;8.72
69857;BMP280;57147;53.582;10.112;2023-05-07T05:01:28;101885.81;;;8.90
69857;BMP280;57147;53.582;10.112;2023-05-07T05:06:28;101878.88;;;8.84
69857;BMP280;57147;53.582;10.112;2023-05-07T05:11:32;101888.88;;;8.77
69857;BMP280;57147;53.582;10.112;2023-05-07T05:16:32;101902.72;;;8.84
69857;BMP280;57147;53.582;10.112;2023-05-07T05:21:33;101908.75;;;9.06
69857;BMP280;57147;53.582;10.112;2023-05-07T05:26:36;101915.19;;;9.10
69857;BMP280;57147;53.582;10.112;2023-05-07T05:31:37;101898.47;;;9.10
69857;BMP280;57147;53.582;10.112;2023-05-07T05:36:37;101911.56;;;9.22
69857;BMP280;57147;53.582;10.112;2023-05-07T05:41:41;101922.84;;;9.39
69857;BMP280;57147;53.582;10.112;2023-05-07T05:46:42;101939.13;;;9.52
69857;BMP280;57147;53.582;10.112;2023-05-07T05:51:43;101902.63;;;9.33
69857;BMP280;57147;53.582;10.112;2023-05-07T05:56:46;101938.91;;;9.59
69857;BMP280;57147;53.582;10.112;2023-05-07T06:01:47;101935.03;;;9.40
69857;BMP280;57147;53.582;10.112;2023-05-07T06:06:47;101942.63;;;9.58
69857;BMP280;57147;53.582;10.112;2023-05-07T06:11:51;101956.78;;;9.74
69857;BMP280;57147;53.582;10.112;2023-05-07T06:16:51;101971.91;;;9.73
69857;BMP280;57147;53.582;10.112;2023-05-07T06:21:54;101976.72;;;9.76
69857;BMP280;57147;53.582;10.112;2023-05-07T06:26:57;101965.13;;;9.55
69857;BMP280;57147;53.582;10.112;2023-05-07T06:32:06;101968.84;;;9.54
69857;BMP280;57147;53.582;10.112;2023-05-07T06:37:07;101952.53;;;9.41
69857;BMP280;57147;53.582;10.112;2023-05-07T06:42:10;101967.50;;;9.52
69857;BMP280;57147;53.582;10.112;2023-05-07T06:47:11;101912.06;;;9.19
69857;BMP280;57147;53.582;10.112;2023-05-07T06:52:12;101947.06;;;9.21
69857;BMP280;57147;53.582;10.112;2023-05-07T06:57:15;101892.38;;;9.09
69857;BMP280;57147;53.582;10.112;2023-05-07T07:02:16;101988.72;;;9.84
69857;BMP280;57147;53.582;10.112;2023-05-07T07:07:17;101991.50;;;10.04
69857;BMP280;57147;53.582;10.112;2023-05-07T07:12:20;101995.50;;;10.02
69857;BMP280;57147;53.582;10.112;2023-05-07T07:17:21;102018.66;;;10.16
69857;BMP280;57147;53.582;10.112;2023-05-07T07:22:22;102016.91;;;10.32
69857;BMP280;57147;53.582;10.112;2023-05-07T07:27:25;102029.69;;;10.40
69857;BMP280;57147;53.582;10.112;2023-05-07T07:32:26;102010.16;;;10.19
69857;BMP280;57147;53.582;10.112;2023-05-07T07:37:26;102033.53;;;10.64
69857;BMP280;57147;53.582;10.112;2023-05-07T07:42:30;101991.34;;;10.26
69857;BMP280;57147;53.582;10.112;2023-05-07T07:47:30;101986.28;;;10.66
69857;BMP280;57147;53.582;10.112;2023-05-07T07:52:31;102058.19;;;11.22
69857;BMP280;57147;53.582;10.112;2023-05-07T07:57:34;102049.56;;;10.85
69857;BMP280;57147;53.582;10.112;2023-05-07T08:02:35;102028.28;;;10.69
69857;BMP280;57147;53.582;10.112;2023-05-07T08:07:35;102021.84;;;10.65
69857;BMP280;57147;53.582;10.112;2023-05-07T08:12:38;102049.00;;;10.72
69857;BMP280;57147;53.582;10.112;2023-05-07T08:17:39;102020.81;;;10.71
69857;BMP280;57147;53.582;10.112;2023-05-07T08:22:40;102080.03;;;11.29
69857;BMP280;57147;53.582;10.112;2023-05-07T08:27:43;102077.41;;;11.49
69857;BMP280;57147;53.582;10.112;2023-05-07T08:32:44;102067.31;;;11.51
69857;BMP280;57147;53.582;10.112;2023-05-07T08:37:44;102108.28;;;11.81
69857;BMP280;57147;53.582;10.112;2023-05-07T08:42:49;102091.53;;;11.75
69857;BMP280;57147;53.582;10.112;2023-05-07T08:47:51;102114.69;;;11.65
69857;BMP280;57147;53.582;10.112;2023-05-07T08:52:52;102116.28;;;11.66
69857;BMP280;57147;53.582;10.112;2023-05-07T08:57:55;102100.31;;;11.76
69857;BMP280;57147;53.582;10.112;2023-05-07T09:02:56;102119.47;;;11.58
69857;BMP280;57147;53.582;10.112;2023-05-07T09:07:58;102120.81;;;11.75
69857;BMP280;57147;53.582;10.112;2023-05-07T09:13:02;102140.25;;;11.71
69857;BMP280;57147;53.582;10.112;2023-05-07T09:18:03;102134.38;;;12.14
69857;BMP280;57147;53.582;10.112;2023-05-07T09:23:06;102129.56;;;12.47
69857;BMP280;57147;53.582;10.112;2023-05-07T09:28:09;102154.59;;;12.61
69857;BMP280;57147;53.582;10.112;2023-05-07T09:33:11;102175.88;;;12.66
69857;BMP280;57147;53.582;10.112;2023-05-07T09:38:12;102161.53;;;12.62
69857;BMP280;57147;53.582;10.112;2023-05-07T09:43:15;102186.88;;;13.29
69857;BMP280;57147;53.582;10.112;2023-05-07T09:48:17;102192.81;;;13.10
69857;BMP280;57147;53.582;10.112;2023-05-07T09:53:19;102192.84;;;13.05
69857;BMP280;57147;53.582;10.112;2023-05-07T09:58:22;102205.94;;;13.51
69857;BMP280;57147;53.582;10.112;2023-05-07T10:03:24;102201.84;;;13.69
69857;BMP280;57147;53.582;10.112;2023-05-07T10:08:27;102217.91;;;14.36
69857;BMP280;57147;53.582;10.112;2023-05-07T10:13:32;102187.50;;;13.98
69857;BMP280;57147;53.582;10.112;2023-05-07T10:18:33;102167.66;;;13.27
69857;BMP280;57147;53.582;10.112;2023-05-07T10:23:34;102204.38;;;13.94
69857;BMP280;57147;53.582;10.112;2023-05-07T10:28:40;102197.81;;;13.76
69857;BMP280;57147;53.582;10.112;2023-05-07T10:33:45;102188.88;;;13.52
69857;BMP280;57147;53.582;10.112;2023-05-07T10:38:47;102200.72;;;13.31
69857;BMP280;57147;53.582;10.112;2023-05-07T10:43:50;102204.06;;;13.56
69857;BMP280;57147;53.582;10.112;2023-05-07T10:49:06;102191.47;;;13.62
69857;BMP280;57147;53.582;10.112;2023-05-07T10:54:23;102210.03;;;14.21
69857;BMP280;57147;53.582;10.112;2023-05-07T10:59:34;102209.03;;;13.73
69857;BMP280;57147;53.582;10.112;2023-05-07T11:04:35;102204.69;;;13.87
69857;BMP280;57147;53.582;10.112;2023-05-07T11:09:57;102201.16;;;14.26
69857;BMP280;57147;53.582;10.112;2023-05-07T11:15:00;102214.25;;;14.51
69857;BMP280;57147;53.582;10.112;2023-05-07T11:20:01;102222.59;;;14.97
69857;BMP280;57147;53.582;10.112;2023-05-07T11:25:03;102196.72;;;14.93
69857;BMP280;57147;53.582;10.112;2023-05-07T11:30:07;102215.34;;;15.40
69857;BMP280;57147;53.582;10.112;2023-05-07T11:35:08;102225.69;;;15.47
69857;BMP280;57147;53.582;10.112;2023-05-07T11:40:10;102215.63;;;15.57
69857;BMP280;57147;53.582;10.112;2023-05-07T11:45:23;102202.94;;;16.14
69857;BMP280;57147;53.582;10.112;2023-05-07T11:50:24;102208.34;;;16.96
69857;BMP280;57147;53.582;10.112;2023-05-07T11:55:24;102206.50;;;17.05
69857;BMP280;57147;53.582;10.112;2023-05-07T12:00:28;102206.16;;;16.71
69857;BMP280;57147;53.582;10.112;2023-05-07T12:05:28;102191.56;;;16.63
69857;BMP280;57147;53.582;10.112;2023-05-07T12:10:29;102201.59;;;16.85
69857;BMP280;57147;53.582;10.112;2023-05-07T12:15:34;102195.22;;;16.81
69857;BMP280;57147;53.582;10.112;2023-05-07T12:20:36;102195.84;;;17.14
69857;BMP280;57147;53.582;10.112;2023-05-07T12:25:38;102193.94;;;17.28
69857;BMP280;57147;53.582;10.112;2023-05-07T12:30:42;102181.94;;;17.12
69857;BMP280;57147;53.582;10.112;2023-05-07T12:35:43;102190.28;;;16.74
69857;BMP280;57147;53.582;10.112;2023-05-07T12:40:45;102205.47;;;16.51
69857;BMP280;57147;53.582;10.112;2023-05-07T12:45:50;102207.25;;;16.42
69857;BMP280;57147;53.582;10.112;2023-05-07T12:50:51;102194.25;;;16.49
69857;BMP280;57147;53.582;10.112;2023-05-07T12:55:53;102204.00;;;16.73
69857;BMP280;57147;53.582;10.112;2023-05-07T13:00:58;102201.53;;;17.12
69857;BMP280;57147;53.582;10.112;2023-05-07T13:06:00;102199.72;;;17.21
69857;BMP280;57147;53.582;10.112;2023-05-07T13:11:04;102197.44;;;16.79
69857;BMP280;57147;53.582;10.112;2023-05-07T13:16:08;102197.44;;;16.79
69857;BMP280;57147;53.582;10.112;2023-05-07T13:21:09;102192.56;;;17.17
69857;BMP280;57147;53.582;10.112;2023-05-07T13:26:10;102187.91;;;17.44
69857;BMP280;57147;53.582;10.112;2023-05-07T13:31:13;102180.59;;;17.59
69857;BMP280;57147;53.582;10.112;2023-05-07T13:36:14;102182.44;;;17.72
69857;BMP280;57147;53.582;10.112;2023-05-07T13:41:16;102188.84;;;17.62
69857;BMP280;57147;53.582;10.112;2023-05-07T13:46:29;102182.78;;;17.87
69857;BMP280;57147;53.582;10.112;2023-05-07T13:51:45;102194.75;;;18.34
69857;BMP280;57147;53.582;10.112;2023-05-07T13:56:46;102183.91;;;18.74
69857;BMP280;57147;53.582;10.112;2023-05-07T14:01:49;102181.25;;;19.08
69857;BMP280;57147;53.582;10.112;2023-05-07T14:06:50;102190.88;;;19.18
69857;BMP280;57147;53.582;10.112;2023-05-07T14:11:50;102180.31;;;19.04
69857;BMP280;57147;53.582;10.112;2023-05-07T14:16:54;102153.69;;;18.94
69857;BMP280;57147;53.582;10.112;2023-05-07T14:21:54;102182.16;;;19.47
69857;BMP280;57147;53.582;10.112;2023-05-07T14:26:55;102166.34;;;19.36
69857;BMP280;57147;53.582;10.112;2023-05-07T14:31:58;102179.94;;;18.80
69857;BMP280;57147;53.582;10.112;2023-05-07T14:36:59;102179.75;;;18.51
69857;BMP280;57147;53.582;10.112;2023-05-07T14:42:00;102179.56;;;18.38
69857;BMP280;57147;53.582;10.112;2023-05-07T14:47:03;102181.44;;;18.29
69857;BMP280;57147;53.582;10.112;2023-05-07T14:52:04;102172.94;;;18.05
69857;BMP280;57147;53.582;10.112;2023-05-07T14:57:16;102173.59;;;18.59
69857;BMP280;57147;53.582;10.112;2023-05-07T15:02:16;102162.03;;;19.53
69857;BMP280;57147;53.582;10.112;2023-05-07T15:07:17;102175.75;;;20.15
69857;BMP280;57147;53.582;10.112;2023-05-07T15:12:20;102180.34;;;20.44
69857;BMP280;57147;53.582;10.112;2023-05-07T15:17:21;102175.16;;;20.39
69857;BMP280;57147;53.582;10.112;2023-05-07T15:22:21;102177.66;;;20.85
69857;BMP280;57147;53.582;10.112;2023-05-07T15:27:24;102174.66;;;21.19
69857;BMP280;57147;53.582;10.112;2023-05-07T15:32:25;102165.47;;;20.38
69857;BMP280;57147;53.582;10.112;2023-05-07T15:37:26;102168.63;;;20.10
69857;BMP280;57147;53.582;10.112;2023-05-07T15:42:29;102169.06;;;20.12
69857;BMP280;57147;53.582;10.112;2023-05-07T15:47:32;102165.88;;;19.81
69857;BMP280;57147;53.582;10.112;2023-05-07T15:52:33;102170.03;;;19.70
69857;BMP280;57147;53.582;10.112;2023-05-07T15:57:36;102173.50;;;19.79
69857;BMP280;57147;53.582;10.112;2023-05-07T16:02:37;102180.63;;;19.83
69857;BMP280;57147;53.582;10.112;2023-05-07T16:07:38;102163.00;;;19.86
69857;BMP280;57147;53.582;10.112;2023-05-07T16:12:42;102164.53;;;19.58
69857;BMP280;57147;53.582;10.112;2023-05-07T16:17:44;102168.91;;;19.79
69857;BMP280;57147;53.582;10.112;2023-05-07T16:22:45;102172.50;;;19.54
69857;BMP280;57147;53.582;10.112;2023-05-07T16:27:48;102171.88;;;19.23
69857;BMP280;57147;53.582;10.112;2023-05-07T16:32:49;102172.38;;;19.16
69857;BMP280;57147;53.582;10.112;2023-05-07T16:37:49;102166.03;;;18.95
69857;BMP280;57147;53.582;10.112;2023-05-07T16:42:52;102164.13;;;18.70
69857;BMP280;57147;53.582;10.112;2023-05-07T16:47:53;102152.38;;;19.34
69857;BMP280;57147;53.582;10.112;2023-05-07T16:52:54;102170.44;;;19.42
69857;BMP280;57147;53.582;10.112;2023-05-07T16:57:57;102172.38;;;19.33
69857;BMP280;57147;53.582;10.112;2023-05-07T17:02:57;102178.38;;;19.13
69857;BMP280;57147;53.582;10.112;2023-05-07T17:07:58;102139.72;;;19.09
69857;BMP280;57147;53.582;10.112;2023-05-07T17:13:01;102136.94;;;20.28
69857;BMP280;57147;53.582;10.112;2023-05-07T17:18:02;102165.94;;;20.81
69857;BMP280;57147;53.582;10.112;2023-05-07T17:23:03;102166.75;;;20.02
69857;BMP280;57147;53.582;10.112;2023-05-07T17:28:06;102170.13;;;19.35
69857;BMP280;57147;53.582;10.112;2023-05-07T17:33:07;102175.50;;;18.84
69857;BMP280;57147;53.582;10.112;2023-05-07T17:38:07;102165.13;;;18.26
69857;BMP280;57147;53.582;10.112;2023-05-07T17:43:10;102174.25;;;17.85
69857;BMP280;57147;53.582;10.112;2023-05-07T17:48:11;102178.50;;;17.55
69857;BMP280;57147;53.582;10.112;2023-05-07T17:53:12;102189.13;;;17.38
69857;BMP280;57147;53.582;10.112;2023-05-07T17:58:15;102191.00;;;17.02
69857;BMP280;57147;53.582;10.112;2023-05-07T18:03:16;102164.88;;;17.07
69857;BMP280;57147;53.582;10.112;2023-05-07T18:08:17;102191.38;;;17.09
69857;BMP280;57147;53.582;10.112;2023-05-07T18:13:20;102200.50;;;16.86
69857;BMP280;57147;53.582;10.112;2023-05-07T18:18:20;102206.66;;;16.73
69857;BMP280;57147;53.582;10.112;2023-05-07T18:23:21;102191.09;;;16.75
69857;BMP280;57147;53.582;10.112;2023-05-07T18:28:24;102212.47;;;17.16
69857;BMP280;57147;53.582;10.112;2023-05-07T18:33:25;102215.91;;;16.94
69857;BMP280;57147;53.582;10.112;2023-05-07T18:38:25;102182.78;;;16.16
69857;BMP280;57147;53.582;10.112;2023-05-07T18:43:29;102210.25;;;15.95
69857;BMP280;57147;53.582;10.112;2023-05-07T18:48:29;102223.81;;;15.66
69857;BMP280;57147;53.582;10.112;2023-05-07T18:53:30;102208.59;;;15.24
69857;BMP280;57147;53.582;10.112;2023-05-07T18:58:33;102232.72;;;15.00
69857;BMP280;57147;53.582;10.112;2023-05-07T19:03:34;102232.75;;;14.76
69857;BMP280;57147;53.582;10.112;2023-05-07T19:08:34;102233.53;;;14.48
69857;BMP280;57147;53.582;10.112;2023-05-07T19:13:38;102241.34;;;14.39
69857;BMP280;57147;53.582;10.112;2023-05-07T19:18:38;102236.97;;;14.25
69857;BMP280;57147;53.582;10.112;2023-05-07T19:23:39;102231.31;;;13.97
69857;BMP280;57147;53.582;10.112;2023-05-07T19:28:42;102241.00;;;13.88
69857;BMP280;57147;53.582;10.112;2023-05-07T19:33:43;102251.19;;;13.76
69857;BMP280;57147;53.582;10.112;2023-05-07T19:38:44;102255.00;;;13.60
69857;BMP280;57147;53.582;10.112;2023-05-07T19:43:47;102252.19;;;13.46
69857;BMP280;57147;53.582;10.112;2023-05-07T19:48:47;102254.09;;;13.36
69857;BMP280;57147;53.582;10.112;2023-05-07T19:53:48;102257.31;;;13.23
69857;BMP280;57147;53.582;10.112;2023-05-07T19:58:51;102252.56;;;13.09
69857;BMP280;57147;53.582;10.112;2023-05-07T20:03:52;102249.63;;;13.01
69857;BMP280;57147;53.582;10.112;2023-05-07T20:08:53;102236.63;;;12.79
69857;BMP280;57147;53.582;10.112;2023-05-07T20:13:56;102246.22;;;12.75
69857;BMP280;57147;53.582;10.112;2023-05-07T20:18:57;102242.50;;;12.66
69857;BMP280;57147;53.582;10.112;2023-05-07T20:23:58;102227.59;;;12.40
69857;BMP280;57147;53.582;10.112;2023-05-07T20:29:01;102239.06;;;12.40
69857;BMP280;57147;53.582;10.112;2023-05-07T20:34:02;102181.78;;;11.92
69857;BMP280;57147;53.582;10.112;2023-05-07T20:39:03;102233.44;;;12.11
69857;BMP280;57147;53.582;10.112;2023-05-07T20:44:06;102237.72;;;12.12
69857;BMP280;57147;53.582;10.112;2023-05-07T20:49:07;102226.22;;;11.91
69857;BMP280;57147;53.582;10.112;2023-05-07T20:54:07;102231.00;;;11.94
69857;BMP280;57147;53.582;10.112;2023-05-07T20:59:10;102194.75;;;11.58
69857;BMP280;57147;53.582;10.112;2023-05-07T21:04:11;102210.41;;;11.54
69857;BMP280;57147;53.582;10.112;2023-05-07T21:09:12;102244.50;;;11.63
69857;BMP280;57147;53.582;10.112;2023-05-07T21:14:15;102226.59;;;11.43
69857;BMP280;57147;53.582;10.112;2023-05-07T21:19:16;102208.72;;;11.33
69857;BMP280;57147;53.582;10.112;2023-05-07T21:24:16;102222.63;;;11.45
69857;BMP280;57147;53.582;10.112;2023-05-07T21:29:19;102230.56;;;11.40
69857;BMP280;57147;53.582;10.112;2023-05-07T21:34:20;102196.91;;;11.09
69857;BMP280;57147;53.582;10.112;2023-05-07T21:39:21;102244.88;;;11.29
69857;BMP280;57147;53.582;10.112;2023-05-07T21:44:24;102238.50;;;11.25
69857;BMP280;57147;53.582;10.112;2023-05-07T21:49:27;102244.84;;;11.19
69857;BMP280;57147;53.582;10.112;2023-05-07T21:54:28;102241.31;;;11.13
69857;BMP280;57147;53.582;10.112;2023-05-07T21:59:31;102237.56;;;11.04
69857;BMP280;57147;53.582;10.112;2023-05-07T22:04:32;102267.06;;;11.03
69857;BMP280;57147;53.582;10.112;2023-05-07T22:09:32;102229.69;;;10.78
69857;BMP280;57147;53.582;10.112;2023-05-07T22:14:36;102282.44;;;10.96
69857;BMP280;57147;53.582;10.112;2023-05-07T22:19:36;102292.53;;;10.99
69857;BMP280;57147;53.582;10.112;2023-05-07T22:24:37;102283.47;;;10.90
69857;BMP280;57147;53.582;10.112;2023-05-07T22:29:40;102291.94;;;10.92
69857;BMP280;57147;53.582;10.112;2023-05-07T22:34:41;102297.25;;;10.92
69857;BMP280;57147;53.582;10.112;2023-05-07T22:39:41;102276.97;;;10.76
69857;BMP280;57147;53.582;10.112;2023-05-07T22:44:45;102295.06;;;10.79
69857;BMP280;57147;53.582;10.112;2023-05-07T22:49:45;102296.63;;;10.75
69857;BMP280;57147;53.582;10.112;2023-05-07T22:54:46;102296.63;;;10.75
69857;BMP280;57147;53.582;10.112;2023-05-07T22:59:52;102305.66;;;10.73
69857;BMP280;57147;53.582;10.112;2023-05-07T23:04:52;102302.44;;;10.71
69857;BMP280;57147;53.582;10.112;2023-05-07T23:09:53;102316.78;;;10.70
69857;BMP280;57147;53.582;10.112;2023-05-07T23:14:56;102259.56;;;10.31
69857;BMP280;57147;53.582;10.112;2023-05-07T23:19:57;102301.25;;;10.57
69857;BMP280;57147;53.582;10.112;2023-05-07T23:24:57;102274.53;;;10.42
69857;BMP280;57147;53.582;10.112;2023-05-07T23:30:01;102296.91;;;10.46
69857;BMP280;57147;53.582;10.112;2023-05-07T23:35:02;102304.56;;;10.43
69857;BMP280;57147;53.582;10.112;2023-05-07T23:40:03;102284.09;;;10.16
69857;BMP280;57147;53.582;10.112;2023-05-07T23:45:08;102306.22;;;10.27
69857;BMP280;57147;53.582;10.112;2023-05-07T23:50:09;102298.72;;;10.19
69857;BMP280;57147;53.582;10.112;2023-05-07T23:55:10;102307.56;;;10.24
